createdAt,value
2017-07-05T00:00:57.612Z,89.0
2017-07-05T00:01:59.021Z,89.0
2017-07-05T00:03:00.475Z,88.7
2017-07-05T00:04:01.871Z,89.1
2017-07-05T00:05:03.269Z,88.9
2017-07-05T00:06:04.801Z,88.7
2017-07-05T00:07:06.232Z,89.0
2017-07-05T00:08:07.629Z,89.4
2017-07-05T00:09:09.131Z,89.5
2017-07-05T00:10:10.529Z,89.3
2017-07-05T00:11:11.997Z,89.2
2017-07-05T00:12:13.395Z,89.6
2017-07-05T00:13:14.893Z,89.4
2017-07-05T00:14:16.325Z,89.1
2017-07-05T00:15:17.744Z,89.6
2017-07-05T00:16:19.253Z,89.9
2017-07-05T00:17:20.654Z,89.8
2017-07-05T00:18:22.093Z,89.8
2017-07-05T00:19:23.712Z,89.8
2017-07-05T00:20:25.117Z,89.7
2017-07-05T00:21:26.627Z,89.9
2017-07-05T00:22:28.023Z,90.1
2017-07-05T00:23:29.489Z,90.2
2017-07-05T00:24:30.886Z,89.9
2017-07-05T00:25:32.287Z,90.2
2017-07-05T00:26:33.810Z,90.1
2017-07-05T00:27:35.207Z,90.1
2017-07-05T00:28:36.641Z,90.1
2017-07-05T00:29:38.139Z,90.0
2017-07-05T00:30:39.552Z,90.2
2017-07-05T00:31:40.967Z,90.5
2017-07-05T00:32:42.457Z,90.1
2017-07-05T00:33:43.885Z,90.1
2017-07-05T00:34:45.287Z,90.2
2017-07-05T00:35:46.768Z,90.0
2017-07-05T00:36:48.169Z,90.0
2017-07-05T00:37:49.678Z,90.1
2017-07-05T00:38:51.129Z,89.7
2017-07-05T00:39:52.528Z,90.2
2017-07-05T00:40:53.961Z,90.5
2017-07-05T00:41:55.371Z,90.1
2017-07-05T00:42:56.769Z,90.5
2017-07-05T00:43:58.289Z,89.9
2017-07-05T00:44:59.704Z,90.2
2017-07-05T00:46:01.292Z,90.1
2017-07-05T00:47:02.815Z,90.1
2017-07-05T00:48:04.230Z,89.9
2017-07-05T00:49:05.661Z,89.9
2017-07-05T00:50:07.149Z,89.9
2017-07-05T00:51:08.545Z,90.5
2017-07-05T00:52:10.148Z,90.2
2017-07-05T00:53:11.553Z,89.9
2017-07-05T00:54:13.100Z,90.0
2017-07-05T00:55:14.501Z,90.4
2017-07-05T00:56:15.900Z,90.2
2017-07-05T00:57:17.437Z,90.3
2017-07-05T00:58:18.834Z,90.2
2017-07-05T00:59:20.256Z,90.2
2017-07-05T01:00:21.743Z,90.2
2017-07-05T01:01:23.146Z,90.5
2017-07-05T01:02:24.542Z,90.9
2017-07-05T01:03:26.062Z,90.7
2017-07-05T01:04:27.529Z,90.6
2017-07-05T01:05:28.924Z,91.0
2017-07-05T01:06:30.420Z,90.7
2017-07-05T01:07:31.841Z,90.9
2017-07-05T01:08:33.256Z,90.5
2017-07-05T01:09:34.810Z,90.7
2017-07-05T01:10:36.249Z,90.9
2017-07-05T01:11:37.801Z,90.8
2017-07-05T01:12:39.203Z,90.9
2017-07-05T01:13:40.673Z,90.7
2017-07-05T01:14:42.092Z,90.8
2017-07-05T01:15:43.683Z,90.8
2017-07-05T01:16:45.091Z,90.5
2017-07-05T01:17:46.747Z,90.4
2017-07-05T01:18:48.158Z,90.5
2017-07-05T01:19:49.825Z,90.5
2017-07-05T01:20:51.224Z,90.6
2017-07-05T01:21:52.925Z,90.8
2017-07-05T01:22:54.314Z,90.8
2017-07-05T01:23:56.015Z,90.8
2017-07-05T01:24:57.417Z,90.7
2017-07-05T01:25:58.838Z,90.8
2017-07-05T01:27:00.534Z,90.7
2017-07-05T01:28:01.989Z,90.3
2017-07-05T01:29:03.383Z,90.4
2017-07-05T01:30:05.070Z,90.3
2017-07-05T01:31:06.484Z,90.2
2017-07-05T01:32:08.156Z,90.4
2017-07-05T01:33:09.560Z,90.3
2017-07-05T01:34:11.223Z,90.4
2017-07-05T01:35:12.620Z,90.6
2017-07-05T01:36:14.031Z,90.8
2017-07-05T01:37:15.743Z,90.8
2017-07-05T01:38:17.144Z,90.8
2017-07-05T01:39:18.546Z,90.9
2017-07-05T01:40:20.075Z,90.7
2017-07-05T01:41:21.462Z,90.5
2017-07-05T01:42:23.151Z,90.5
2017-07-05T01:43:24.554Z,90.5
2017-07-05T01:44:26.251Z,90.6
2017-07-05T01:45:27.649Z,90.5
2017-07-05T01:46:29.055Z,90.5
2017-07-05T01:47:30.772Z,90.7
2017-07-05T01:48:32.175Z,90.5
2017-07-05T01:49:33.992Z,90.5
2017-07-05T01:50:35.955Z,90.4
2017-07-05T01:51:37.354Z,90.2
2017-07-05T01:52:38.754Z,90.5
2017-07-05T01:53:40.481Z,91.4
2017-07-05T01:54:41.911Z,91.1
2017-07-05T01:55:43.330Z,91.0
2017-07-05T01:56:44.983Z,91.0
2017-07-05T01:57:46.421Z,90.9
2017-07-05T01:58:47.821Z,91.4
2017-07-05T01:59:49.501Z,91.2
2017-07-05T02:00:50.925Z,91.2
2017-07-05T02:01:52.316Z,91.1
2017-07-05T02:02:54.025Z,91.0
2017-07-05T02:03:55.431Z,91.5
2017-07-05T02:04:56.887Z,91.7
2017-07-05T02:05:58.535Z,91.6
2017-07-05T02:06:59.980Z,91.5
2017-07-05T02:08:01.639Z,91.7
2017-07-05T02:09:03.036Z,91.7
2017-07-05T02:10:04.752Z,91.3
2017-07-05T02:11:06.148Z,91.2
2017-07-05T02:12:07.791Z,91.3
2017-07-05T02:13:09.186Z,90.9
2017-07-05T02:14:10.879Z,91.0
2017-07-05T02:15:12.305Z,91.1
2017-07-05T02:16:13.956Z,91.6
2017-07-05T02:17:15.379Z,91.6
2017-07-05T02:18:17.046Z,91.4
2017-07-05T02:19:18.444Z,91.5
2017-07-05T02:20:20.133Z,91.5
2017-07-05T02:21:21.534Z,91.8
2017-07-05T02:22:24.251Z,92.2
2017-07-05T02:23:25.651Z,91.9
2017-07-05T02:24:27.361Z,91.7
2017-07-05T02:25:28.737Z,91.9
2017-07-05T02:26:30.430Z,92.0
2017-07-05T02:27:31.814Z,92.0
2017-07-05T02:28:33.502Z,91.8
2017-07-05T02:29:34.924Z,91.8
2017-07-05T02:30:36.585Z,91.8
2017-07-05T02:31:37.978Z,92.0
2017-07-05T02:32:39.688Z,92.0
2017-07-05T02:33:41.088Z,91.8
2017-07-05T02:34:42.789Z,92.0
2017-07-05T02:35:44.239Z,92.2
2017-07-05T02:36:45.617Z,92.0
2017-07-05T02:37:47.289Z,91.8
2017-07-05T02:38:48.690Z,91.6
2017-07-05T02:39:50.127Z,91.9
2017-07-05T02:40:51.800Z,91.9
2017-07-05T02:41:53.198Z,91.9
2017-07-05T02:42:54.598Z,91.6
2017-07-05T02:43:56.328Z,91.7
2017-07-05T02:44:57.738Z,91.9
2017-07-05T02:45:59.142Z,91.8
2017-07-05T02:47:00.650Z,91.6
2017-07-05T02:48:02.048Z,91.7
2017-07-05T02:49:03.459Z,91.9
2017-07-05T02:50:05.021Z,91.9
2017-07-05T02:51:06.407Z,91.8
2017-07-05T02:52:07.807Z,92.1
2017-07-05T02:53:09.511Z,91.8
2017-07-05T02:54:10.896Z,92.2
2017-07-05T02:55:12.587Z,92.5
2017-07-05T02:56:14.009Z,92.3
2017-07-05T02:57:15.662Z,91.9
2017-07-05T02:58:17.064Z,92.3
2017-07-05T02:59:18.834Z,92.4
2017-07-05T03:00:20.187Z,92.3
2017-07-05T03:01:21.611Z,92.4
2017-07-05T03:02:23.275Z,92.7
2017-07-05T03:03:24.675Z,92.5
2017-07-05T03:04:26.074Z,92.6
2017-07-05T03:05:27.604Z,92.4
2017-07-05T03:06:29.006Z,92.6
2017-07-05T03:07:30.698Z,92.6
2017-07-05T03:08:32.138Z,92.7
2017-07-05T03:09:33.766Z,92.4
2017-07-05T03:10:35.173Z,92.8
2017-07-05T03:11:36.853Z,92.3
2017-07-05T03:12:38.253Z,92.6
2017-07-05T03:13:39.941Z,92.4
2017-07-05T03:14:41.340Z,92.8
2017-07-05T03:15:43.041Z,92.6
2017-07-05T03:16:44.452Z,92.9
2017-07-05T03:17:46.128Z,93.0
2017-07-05T03:18:47.526Z,92.7
2017-07-05T03:19:49.195Z,93.0
2017-07-05T03:20:50.594Z,93.1
2017-07-05T03:21:52.007Z,92.8
2017-07-05T03:22:54.554Z,93.1
2017-07-05T03:23:55.950Z,93.0
2017-07-05T03:24:57.358Z,92.8
2017-07-05T03:25:58.860Z,92.9
2017-07-05T03:27:00.259Z,92.9
2017-07-05T03:28:01.689Z,93.0
2017-07-05T03:29:03.182Z,93.1
2017-07-05T03:30:04.583Z,92.9
2017-07-05T03:31:05.982Z,93.0
2017-07-05T03:32:07.565Z,92.9
2017-07-05T03:33:08.941Z,93.0
2017-07-05T03:34:10.628Z,93.0
2017-07-05T03:35:12.024Z,93.0
2017-07-05T03:36:13.702Z,93.0
2017-07-05T03:37:15.099Z,93.4
2017-07-05T03:38:16.503Z,93.1
2017-07-05T03:39:17.952Z,93.0
2017-07-05T03:40:19.357Z,92.6
2017-07-05T03:41:20.784Z,92.6
2017-07-05T03:42:22.317Z,92.7
2017-07-05T03:43:23.752Z,93.0
2017-07-05T03:44:25.141Z,93.0
2017-07-05T03:45:26.639Z,92.9
2017-07-05T03:46:28.059Z,92.9
2017-07-05T03:47:29.465Z,93.0
2017-07-05T03:48:30.993Z,92.9
2017-07-05T03:49:32.399Z,92.9
2017-07-05T03:50:33.835Z,93.0
2017-07-05T03:51:35.490Z,92.6
2017-07-05T03:52:36.889Z,92.8
2017-07-05T03:53:38.570Z,93.0
2017-07-05T03:54:39.970Z,93.0
2017-07-05T03:55:41.662Z,92.7
2017-07-05T03:56:43.064Z,93.0
2017-07-05T03:57:44.740Z,92.9
2017-07-05T03:58:46.141Z,92.9
2017-07-05T03:59:47.834Z,92.8
2017-07-05T04:00:49.302Z,92.9
2017-07-05T04:01:50.910Z,92.7
2017-07-05T04:02:52.327Z,92.8
2017-07-05T04:03:53.995Z,92.9
2017-07-05T04:04:55.400Z,93.8
2017-07-05T04:05:57.107Z,92.8
2017-07-05T04:06:58.509Z,93.3
2017-07-05T04:08:00.165Z,93.8
2017-07-05T04:09:01.575Z,93.6
2017-07-05T04:10:03.260Z,93.3
2017-07-05T04:11:04.667Z,93.2
2017-07-05T04:12:06.096Z,93.6
2017-07-05T04:13:07.578Z,93.2
2017-07-05T04:14:08.981Z,93.7
2017-07-05T04:15:10.382Z,93.2
2017-07-05T04:16:11.828Z,93.2
2017-07-05T04:17:13.252Z,93.1
2017-07-05T04:18:14.654Z,93.6
2017-07-05T04:19:16.182Z,93.6
2017-07-05T04:20:17.585Z,93.3
2017-07-05T04:21:19.030Z,93.4
2017-07-05T04:22:20.429Z,93.4
2017-07-05T04:23:21.912Z,93.9
2017-07-05T04:24:23.314Z,94.0
2017-07-05T04:25:24.808Z,93.6
2017-07-05T04:26:26.215Z,93.8
2017-07-05T04:27:27.636Z,93.9
2017-07-05T04:28:29.128Z,93.9
2017-07-05T04:29:30.528Z,93.9
2017-07-05T04:30:31.919Z,93.8
2017-07-05T04:31:33.437Z,93.7
2017-07-05T04:32:34.837Z,93.7
2017-07-05T04:33:36.238Z,93.7
2017-07-05T04:34:37.757Z,94.2
2017-07-05T04:35:39.157Z,93.5
2017-07-05T04:36:40.559Z,93.7
2017-07-05T04:37:42.079Z,93.8
2017-07-05T04:38:43.481Z,93.8
2017-07-05T04:39:44.900Z,94.0
2017-07-05T04:40:47.475Z,93.9
2017-07-05T04:41:48.878Z,94.0
2017-07-05T04:42:50.279Z,93.9
2017-07-05T04:43:51.747Z,94.0
2017-07-05T04:44:53.148Z,93.9
2017-07-05T04:45:54.550Z,93.9
2017-07-05T04:46:56.070Z,93.6
2017-07-05T04:47:57.470Z,93.4
2017-07-05T04:48:58.953Z,93.4
2017-07-05T04:50:00.353Z,93.3
2017-07-05T04:51:01.832Z,93.7
2017-07-05T04:52:03.239Z,93.0
2017-07-05T04:53:04.639Z,92.8
2017-07-05T04:54:06.151Z,92.7
2017-07-05T04:55:07.557Z,93.2
2017-07-05T04:56:08.958Z,93.0
2017-07-05T04:57:10.471Z,93.1
2017-07-05T04:58:11.881Z,92.4
2017-07-05T04:59:13.318Z,92.0
2017-07-05T05:00:14.809Z,91.8
2017-07-05T05:01:16.218Z,92.0
2017-07-05T05:02:17.614Z,91.9
2017-07-05T05:03:19.116Z,91.2
2017-07-05T05:04:20.518Z,90.7
2017-07-05T05:05:21.998Z,90.4
2017-07-05T05:06:23.401Z,90.1
2017-07-05T05:07:24.877Z,90.1
2017-07-05T05:08:26.292Z,89.6
2017-07-05T05:09:27.762Z,90.3
2017-07-05T05:10:29.164Z,90.7
2017-07-05T05:11:30.640Z,90.7
2017-07-05T05:12:32.043Z,89.9
2017-07-05T05:13:33.445Z,90.6
2017-07-05T05:14:34.985Z,90.2
2017-07-05T05:15:36.392Z,90.3
2017-07-05T05:16:37.791Z,90.6
2017-07-05T05:17:39.284Z,90.8
2017-07-05T05:18:40.687Z,90.8
2017-07-05T05:19:42.094Z,90.1
2017-07-05T05:20:43.601Z,90.4
2017-07-05T05:21:45.013Z,90.1
2017-07-05T05:22:46.420Z,90.1
2017-07-05T05:23:47.927Z,89.8
2017-07-05T05:24:49.330Z,90.2
2017-07-05T05:25:50.732Z,89.7
2017-07-05T05:26:52.248Z,89.4
2017-07-05T05:27:53.654Z,89.9
2017-07-05T05:28:55.054Z,89.6
2017-07-05T05:29:56.571Z,89.1
2017-07-05T05:30:57.988Z,88.9
2017-07-05T05:31:59.451Z,89.1
2017-07-05T05:33:00.860Z,88.7
2017-07-05T05:34:02.266Z,89.1
2017-07-05T05:35:03.778Z,88.9
2017-07-05T05:36:05.179Z,88.8
2017-07-05T05:37:06.587Z,89.0
2017-07-05T05:38:08.096Z,89.0
2017-07-05T05:39:09.497Z,88.8
2017-07-05T05:40:10.914Z,88.7
2017-07-05T05:41:12.418Z,88.8
2017-07-05T05:42:13.822Z,88.4
2017-07-05T05:43:15.228Z,88.7
2017-07-05T05:44:16.744Z,88.8
2017-07-05T05:45:18.161Z,87.8
2017-07-05T05:46:19.560Z,88.1
2017-07-05T05:47:21.061Z,88.1
2017-07-05T05:48:22.467Z,88.0
2017-07-05T05:49:23.872Z,88.5
2017-07-05T05:50:25.382Z,88.2
2017-07-05T05:51:26.788Z,87.9
2017-07-05T05:52:28.192Z,87.4
2017-07-05T05:53:29.769Z,87.7
2017-07-05T05:54:31.175Z,86.8
2017-07-05T05:55:32.581Z,86.4
2017-07-05T05:56:34.027Z,86.7
2017-07-05T05:57:35.431Z,86.7
2017-07-05T05:58:36.843Z,85.7
2017-07-05T05:59:38.349Z,85.3
2017-07-05T06:00:39.753Z,84.9
2017-07-05T06:01:41.229Z,85.5
2017-07-05T06:02:42.634Z,85.2
2017-07-05T06:03:44.036Z,84.8
2017-07-05T06:04:45.550Z,85.4
2017-07-05T06:05:46.956Z,85.6
2017-07-05T06:06:48.369Z,84.7
2017-07-05T06:07:49.873Z,84.6
2017-07-05T06:08:51.283Z,84.5
2017-07-05T06:09:52.723Z,84.4
2017-07-05T06:10:54.251Z,84.2
2017-07-05T06:11:55.608Z,84.4
2017-07-05T06:12:57.019Z,83.9
2017-07-05T06:13:58.513Z,83.9
2017-07-05T06:14:59.919Z,83.4
2017-07-05T06:16:01.331Z,83.6
2017-07-05T06:17:02.836Z,82.7
2017-07-05T06:18:04.235Z,82.1
2017-07-05T06:19:05.647Z,82.5
2017-07-05T06:20:07.159Z,82.2
2017-07-05T06:21:08.565Z,82.2
2017-07-05T06:22:09.985Z,81.7
2017-07-05T06:23:11.479Z,81.8
2017-07-05T06:24:12.885Z,81.3
2017-07-05T06:25:14.360Z,81.6
2017-07-05T06:26:15.767Z,80.2
2017-07-05T06:27:17.242Z,80.5
2017-07-05T06:28:18.650Z,79.7
2017-07-05T06:29:20.119Z,79.2
2017-07-05T06:30:21.527Z,79.6
2017-07-05T06:31:23.002Z,79.2
2017-07-05T06:32:24.409Z,79.5
2017-07-05T06:33:25.884Z,78.9
2017-07-05T06:34:27.299Z,78.7
2017-07-05T06:35:28.700Z,77.9
2017-07-05T06:36:30.205Z,78.3
2017-07-05T06:37:31.611Z,77.6
2017-07-05T06:38:33.019Z,76.1
2017-07-05T06:39:34.526Z,75.6
2017-07-05T06:40:35.934Z,76.6
2017-07-05T06:41:37.409Z,74.6
2017-07-05T06:42:38.814Z,74.3
2017-07-05T06:43:40.293Z,75.1
2017-07-05T06:44:41.702Z,74.5
2017-07-05T06:45:43.171Z,74.7
2017-07-05T06:46:44.591Z,74.7
2017-07-05T06:47:46.050Z,73.9
2017-07-05T06:48:47.461Z,73.8
2017-07-05T06:49:48.865Z,74.7
2017-07-05T06:50:50.375Z,74.0
2017-07-05T06:51:51.786Z,73.4
2017-07-05T06:52:53.195Z,73.7
2017-07-05T06:53:54.694Z,74.0
2017-07-05T06:54:56.100Z,73.6
2017-07-05T06:55:57.579Z,72.6
2017-07-05T06:56:58.979Z,72.5
2017-07-05T06:58:00.456Z,71.8
2017-07-05T06:59:01.866Z,72.9
2017-07-05T07:00:03.273Z,72.0
2017-07-05T07:01:04.777Z,71.6
2017-07-05T07:02:06.186Z,71.2
2017-07-05T07:03:07.596Z,70.9
2017-07-05T07:04:09.099Z,71.0
2017-07-05T07:05:10.511Z,69.9
2017-07-05T07:06:11.925Z,69.5
2017-07-05T07:07:13.423Z,68.6
2017-07-05T07:08:14.834Z,67.6
2017-07-05T07:09:16.242Z,67.8
2017-07-05T07:10:17.745Z,65.7
2017-07-05T07:11:19.153Z,65.4
2017-07-05T07:12:20.623Z,65.7
2017-07-05T07:13:22.029Z,65.9
2017-07-05T07:14:23.437Z,65.8
2017-07-05T07:15:24.945Z,65.2
2017-07-05T07:16:26.352Z,66.0
2017-07-05T07:17:27.762Z,65.8
2017-07-05T07:18:29.268Z,66.5
2017-07-05T07:19:30.672Z,66.4
2017-07-05T07:20:32.116Z,66.6
2017-07-05T07:21:33.612Z,64.0
2017-07-05T07:22:35.023Z,64.0
2017-07-05T07:23:36.441Z,62.4
2017-07-05T07:24:37.913Z,62.8
2017-07-05T07:25:39.320Z,62.7
2017-07-05T07:26:40.796Z,61.8
2017-07-05T07:27:42.203Z,62.0
2017-07-05T07:28:43.675Z,62.0
2017-07-05T07:29:45.090Z,61.0
2017-07-05T07:30:46.493Z,59.8
2017-07-05T07:31:47.998Z,59.2
2017-07-05T07:32:49.437Z,57.5
2017-07-05T07:33:50.843Z,57.2
2017-07-05T07:34:52.316Z,57.5
2017-07-05T07:35:53.723Z,56.6
2017-07-05T07:36:55.120Z,56.9
2017-07-05T07:37:56.636Z,56.2
2017-07-05T07:38:58.052Z,56.7
2017-07-05T07:39:59.472Z,56.3
2017-07-05T07:41:00.959Z,56.7
2017-07-05T07:42:02.367Z,56.3
2017-07-05T07:43:03.836Z,55.7
2017-07-05T07:44:05.246Z,55.2
2017-07-05T07:45:06.725Z,54.4
2017-07-05T07:46:08.139Z,54.5
2017-07-05T07:47:09.603Z,54.0
2017-07-05T07:48:11.011Z,53.2
2017-07-05T07:49:12.485Z,52.8
2017-07-05T07:50:13.892Z,52.9
2017-07-05T07:51:15.299Z,52.1
2017-07-05T07:52:16.808Z,51.9
2017-07-05T07:53:18.213Z,51.0
2017-07-05T07:54:19.622Z,50.4
2017-07-05T07:55:21.130Z,49.9
2017-07-05T07:56:22.546Z,50.3
2017-07-05T07:57:23.979Z,49.0
2017-07-05T07:58:25.450Z,48.0
2017-07-05T07:59:26.861Z,47.1
2017-07-05T08:00:28.293Z,47.1
2017-07-05T08:01:29.769Z,46.9
2017-07-05T08:02:31.181Z,45.5
2017-07-05T08:03:32.586Z,46.2
2017-07-05T08:04:34.093Z,44.7
2017-07-05T08:05:35.506Z,43.6
2017-07-05T08:06:36.914Z,44.7
2017-07-05T08:07:38.413Z,44.7
2017-07-05T08:08:39.819Z,44.0
2017-07-05T08:09:41.229Z,43.3
2017-07-05T08:10:42.749Z,42.2
2017-07-05T08:11:44.173Z,41.6
2017-07-05T08:12:45.641Z,40.8
2017-07-05T08:13:47.054Z,41.2
2017-07-05T08:14:48.499Z,41.2
2017-07-05T08:15:49.906Z,40.9
2017-07-05T08:16:51.313Z,39.7
2017-07-05T08:17:52.840Z,39.9
2017-07-05T08:18:54.246Z,39.7
2017-07-05T08:19:55.665Z,39.6
2017-07-05T08:20:57.142Z,39.2
2017-07-05T08:21:58.549Z,38.1
2017-07-05T08:22:59.960Z,37.9
2017-07-05T08:24:01.480Z,37.3
2017-07-05T08:25:02.891Z,35.8
2017-07-05T08:26:04.297Z,36.9
2017-07-05T08:27:05.784Z,35.9
2017-07-05T08:28:07.220Z,36.0
2017-07-05T08:29:08.637Z,36.5
2017-07-05T08:30:10.106Z,37.0
2017-07-05T08:31:11.513Z,35.6
2017-07-05T08:32:12.986Z,34.4
2017-07-05T08:33:14.398Z,34.5
2017-07-05T08:34:15.869Z,33.2
2017-07-05T08:35:17.278Z,33.8
2017-07-05T08:36:18.749Z,32.8
2017-07-05T08:37:20.161Z,32.5
2017-07-05T08:38:21.630Z,30.7
2017-07-05T08:39:23.049Z,29.2
2017-07-05T08:40:24.509Z,27.4
2017-07-05T08:41:25.948Z,27.9
2017-07-05T08:42:27.393Z,27.7
2017-07-05T08:43:28.803Z,25.6
2017-07-05T08:44:30.272Z,23.7
2017-07-05T08:45:31.691Z,24.5
2017-07-05T08:46:33.172Z,24.4
2017-07-05T08:47:34.590Z,25.6
2017-07-05T08:48:36.041Z,25.6
2017-07-05T08:49:37.454Z,27.2
2017-07-05T08:50:38.915Z,27.1
2017-07-05T08:51:40.323Z,27.3
2017-07-05T08:52:41.798Z,24.8
2017-07-05T08:53:43.209Z,26.0
2017-07-05T08:54:44.697Z,27.2
2017-07-05T08:55:46.107Z,27.6
2017-07-05T08:56:47.528Z,27.4
2017-07-05T08:57:49.003Z,25.3
2017-07-05T08:58:50.412Z,25.6
2017-07-05T08:59:51.829Z,21.2
2017-07-05T09:00:53.320Z,20.0
2017-07-05T09:01:54.731Z,19.6
2017-07-05T09:02:56.200Z,20.0
2017-07-05T09:03:57.613Z,18.1
2017-07-05T09:04:59.084Z,15.6
2017-07-05T09:06:00.494Z,15.4
2017-07-05T09:07:01.966Z,13.0
2017-07-05T09:08:03.378Z,12.1
2017-07-05T09:09:04.843Z,11.5
2017-07-05T09:10:06.272Z,10.4
2017-07-05T09:11:07.683Z,9.3
2017-07-05T09:12:09.167Z,12.5
2017-07-05T09:13:10.584Z,13.8
2017-07-05T09:14:11.993Z,11.8
2017-07-05T09:15:13.488Z,9.5
2017-07-05T09:16:14.902Z,10.5
2017-07-05T09:17:16.313Z,11.0
2017-07-05T09:18:17.825Z,12.0
2017-07-05T09:19:19.238Z,10.1
2017-07-05T09:20:20.648Z,9.2
2017-07-05T09:21:22.134Z,7.8
2017-07-05T09:22:23.543Z,5.9
2017-07-05T09:23:25.012Z,7.1
2017-07-05T09:24:26.423Z,9.0
2017-07-05T09:25:27.896Z,7.9
2017-07-05T09:26:29.339Z,8.7
2017-07-05T09:27:30.744Z,9.7
2017-07-05T09:28:32.214Z,9.1
2017-07-05T09:29:33.629Z,8.9
2017-07-05T09:30:35.045Z,11.1
2017-07-05T09:31:36.536Z,9.0
2017-07-05T09:32:37.953Z,8.0
2017-07-05T09:33:39.415Z,9.4
2017-07-05T09:34:40.829Z,10.5
2017-07-05T09:35:42.300Z,12.1
2017-07-05T09:36:43.711Z,16.3
2017-07-05T09:37:45.180Z,18.1
2017-07-05T09:38:46.593Z,16.9
2017-07-05T09:39:48.060Z,12.3
2017-07-05T09:40:49.472Z,15.8
2017-07-05T09:41:50.940Z,17.6
2017-07-05T09:42:52.349Z,19.6
2017-07-05T09:43:53.822Z,21.2
2017-07-05T09:44:55.233Z,23.5
2017-07-05T09:45:56.714Z,25.2
2017-07-05T09:46:58.117Z,25.1
2017-07-05T09:47:59.526Z,25.5
2017-07-05T09:49:01.027Z,28.1
2017-07-05T09:50:02.439Z,28.5
2017-07-05T09:51:03.845Z,29.3
2017-07-05T09:52:05.346Z,28.3
2017-07-05T09:53:06.759Z,27.9
2017-07-05T09:54:08.271Z,27.9
2017-07-05T09:55:09.686Z,28.8
2017-07-05T09:56:11.316Z,22.9
2017-07-05T09:57:12.723Z,20.2
2017-07-05T09:58:14.197Z,21.6
2017-07-05T09:59:15.613Z,18.4
2017-07-05T10:00:17.078Z,17.3
2017-07-05T10:01:18.494Z,11.9
2017-07-05T10:02:19.961Z,8.2
2017-07-05T10:03:21.367Z,6.2
2017-07-05T10:04:22.855Z,4.4
2017-07-05T10:05:24.271Z,3.4
2017-07-05T10:06:26.154Z,1.5
2017-07-05T10:07:27.577Z,0.8
2017-07-05T10:08:29.011Z,0.6
2017-07-05T10:09:30.423Z,0.0
2017-07-05T10:10:31.893Z,0.0
2017-07-05T10:11:33.305Z,0.0
2017-07-05T10:12:34.726Z,0.0
2017-07-05T10:13:36.245Z,0.0
2017-07-05T10:14:37.669Z,0.0
2017-07-05T10:15:39.130Z,0.0
2017-07-05T10:16:40.739Z,0.0
2017-07-05T10:17:42.154Z,0.0
2017-07-05T10:18:43.615Z,0.0
2017-07-05T10:19:45.060Z,0.0
2017-07-05T10:20:46.477Z,0.0
2017-07-05T10:21:47.890Z,0.0
2017-07-05T10:22:49.381Z,0.0
2017-07-05T10:23:50.804Z,0.0
2017-07-05T10:24:52.261Z,0.0
2017-07-05T10:25:53.680Z,0.0
2017-07-05T10:26:55.144Z,0.0
2017-07-05T10:27:56.563Z,0.0
2017-07-05T10:28:58.026Z,0.0
2017-07-05T10:29:59.442Z,0.0
2017-07-05T10:31:00.906Z,0.0
2017-07-05T10:32:02.324Z,0.0
2017-07-05T10:33:03.786Z,0.0
2017-07-05T10:34:05.207Z,0.0
2017-07-05T10:35:06.666Z,0.0
2017-07-05T10:36:08.086Z,0.0
2017-07-05T10:37:09.507Z,0.0
2017-07-05T10:38:11.003Z,0.0
2017-07-05T10:39:12.419Z,0.0
2017-07-05T10:40:13.833Z,0.0
2017-07-05T10:41:15.310Z,0.0
2017-07-05T10:42:16.729Z,0.0
2017-07-05T10:43:18.146Z,0.0
2017-07-05T10:44:19.631Z,0.0
2017-07-05T10:45:21.048Z,0.0
2017-07-05T10:46:22.461Z,0.0
2017-07-05T10:47:23.954Z,1.1
2017-07-05T10:48:25.365Z,2.7
2017-07-05T10:49:26.778Z,5.1
2017-07-05T10:50:28.274Z,7.6
2017-07-05T10:51:29.688Z,6.7
2017-07-05T10:52:31.101Z,5.7
2017-07-05T10:53:32.596Z,6.2
2017-07-05T10:54:34.006Z,8.0
2017-07-05T10:55:35.419Z,10.2
2017-07-05T10:56:36.918Z,11.9
2017-07-05T10:57:38.329Z,12.8
2017-07-05T10:58:39.746Z,14.8
2017-07-05T10:59:41.242Z,15.2
2017-07-05T11:00:42.655Z,14.0
2017-07-05T11:01:44.070Z,7.7
2017-07-05T11:02:45.582Z,5.9
2017-07-05T11:03:46.998Z,3.6
2017-07-05T11:04:48.446Z,1.4
2017-07-05T11:05:49.862Z,0.0
2017-07-05T11:06:51.323Z,0.8
2017-07-05T11:07:52.734Z,0.5
2017-07-05T11:08:54.207Z,0.5
2017-07-05T11:09:55.617Z,0.0
2017-07-05T11:10:57.090Z,0.0
2017-07-05T11:11:58.501Z,0.0
2017-07-05T11:12:59.921Z,0.5
2017-07-05T11:14:01.409Z,2.1
2017-07-05T11:15:02.822Z,5.0
2017-07-05T11:16:04.236Z,5.6
2017-07-05T11:17:05.732Z,8.0
2017-07-05T11:18:07.144Z,7.7
2017-07-05T11:19:08.612Z,9.1
2017-07-05T11:20:10.027Z,10.0
2017-07-05T11:21:11.490Z,10.4
2017-07-05T11:22:12.903Z,11.7
2017-07-05T11:23:14.315Z,12.0
2017-07-05T11:24:15.812Z,13.6
2017-07-05T11:25:17.227Z,13.7
2017-07-05T11:26:18.642Z,14.1
2017-07-05T11:27:20.142Z,12.8
2017-07-05T11:28:21.574Z,8.8
2017-07-05T11:29:22.990Z,6.1
2017-07-05T11:30:24.465Z,4.4
2017-07-05T11:31:25.877Z,4.2
2017-07-05T11:32:27.287Z,2.4
2017-07-05T11:33:28.821Z,1.3
2017-07-05T11:34:30.242Z,0.3
2017-07-05T11:35:31.663Z,0.0
2017-07-05T11:36:33.138Z,0.0
2017-07-05T11:37:34.549Z,0.0
2017-07-05T11:38:35.963Z,0.0
2017-07-05T11:39:37.421Z,0.0
2017-07-05T11:40:38.832Z,0.4
2017-07-05T11:41:40.301Z,0.0
2017-07-05T11:42:41.717Z,0.0
2017-07-05T11:43:43.184Z,0.0
2017-07-05T11:44:44.599Z,0.0
2017-07-05T11:45:46.081Z,0.0
2017-07-05T11:46:47.496Z,0.0
2017-07-05T11:47:48.947Z,0.0
2017-07-05T11:48:50.357Z,0.0
2017-07-05T11:49:51.828Z,1.6
2017-07-05T11:50:53.240Z,3.2
2017-07-05T11:51:54.706Z,4.1
2017-07-05T11:52:56.118Z,2.4
2017-07-05T11:53:57.614Z,1.1
2017-07-05T11:54:59.025Z,1.3
2017-07-05T11:56:00.471Z,0.5
2017-07-05T11:57:01.887Z,0.0
2017-07-05T11:58:03.350Z,0.0
2017-07-05T11:59:04.773Z,0.0
2017-07-05T12:00:06.234Z,0.8
2017-07-05T12:01:07.647Z,1.1
2017-07-05T12:02:09.072Z,1.8
2017-07-05T12:03:10.603Z,1.5
2017-07-05T12:06:50.334Z,6.1
2017-07-05T12:07:51.742Z,7.5
2017-07-05T12:08:53.150Z,9.5
2017-07-05T12:09:54.627Z,11.4
2017-07-05T12:10:56.035Z,11.7
2017-07-05T12:11:57.510Z,13.1
2017-07-05T12:12:58.925Z,13.8
2017-07-05T12:14:00.389Z,13.7
2017-07-05T12:15:01.798Z,9.5
2017-07-05T12:16:03.291Z,9.1
2017-07-05T12:17:04.716Z,11.3
2017-07-05T12:18:06.154Z,12.8
2017-07-05T12:19:07.568Z,11.3
2017-07-05T12:20:08.976Z,8.2
2017-07-05T12:21:10.472Z,5.3
2017-07-05T12:22:11.880Z,2.8
2017-07-05T12:23:13.279Z,1.0
2017-07-05T12:24:14.801Z,0.0
2017-07-05T12:25:16.233Z,0.2
2017-07-05T12:26:17.680Z,1.8
2017-07-05T12:27:19.088Z,4.0
2017-07-05T12:28:20.597Z,4.8
2017-07-05T12:29:22.046Z,6.6
2017-07-05T12:30:23.644Z,8.1
2017-07-05T12:31:25.053Z,8.3
2017-07-05T12:32:26.528Z,11.7
2017-07-05T12:33:27.941Z,12.9
2017-07-05T12:34:29.408Z,14.5
2017-07-05T12:35:30.860Z,14.9
2017-07-05T12:36:32.285Z,15.1
2017-07-05T12:37:33.694Z,16.9
2017-07-05T12:38:35.178Z,17.1
2017-07-05T12:39:36.585Z,18.9
2017-07-05T12:40:38.051Z,20.3
2017-07-05T12:41:39.465Z,18.6
2017-07-05T12:42:40.936Z,15.3
2017-07-05T12:43:42.348Z,13.3
2017-07-05T12:44:43.816Z,10.9
2017-07-05T12:45:45.231Z,12.4
2017-07-05T12:46:46.695Z,12.8
2017-07-05T12:47:48.107Z,14.7
2017-07-05T12:48:49.590Z,14.8
2017-07-05T12:49:51.004Z,16.7
2017-07-05T12:50:54.506Z,18.7
2017-07-05T12:51:55.917Z,19.0
2017-07-05T12:52:57.383Z,20.8
2017-07-05T12:53:58.791Z,21.3
2017-07-05T12:55:00.199Z,21.8
2017-07-05T12:56:01.706Z,21.5
2017-07-05T12:57:03.117Z,21.7
2017-07-05T12:58:04.524Z,24.0
2017-07-05T12:59:06.025Z,24.2
2017-07-05T13:00:07.432Z,26.3
2017-07-05T13:01:08.849Z,25.0
2017-07-05T13:02:10.345Z,25.5
2017-07-05T13:03:11.756Z,24.1
2017-07-05T13:04:13.166Z,22.3
2017-07-05T13:05:14.667Z,24.7
2017-07-05T13:06:16.074Z,26.2
2017-07-05T13:07:17.498Z,27.0
2017-07-05T13:08:18.996Z,26.8
2017-07-05T13:09:20.402Z,28.1
2017-07-05T13:10:21.822Z,30.7
2017-07-05T13:11:23.336Z,30.6
2017-07-05T13:12:24.746Z,31.3
2017-07-05T13:13:26.155Z,31.6
2017-07-05T13:14:27.632Z,30.9
2017-07-05T13:15:29.041Z,31.5
2017-07-05T13:16:30.449Z,29.8
2017-07-05T13:17:31.953Z,29.6
2017-07-05T13:18:33.365Z,30.1
2017-07-05T13:19:34.777Z,29.9
2017-07-05T13:20:36.286Z,30.3
2017-07-05T13:21:37.688Z,28.2
2017-07-05T13:22:39.100Z,30.8
2017-07-05T13:23:40.597Z,30.3
2017-07-05T13:24:42.008Z,28.7
2017-07-05T13:25:43.417Z,25.7
2017-07-05T13:26:44.939Z,23.3
2017-07-05T13:27:46.357Z,22.8
2017-07-05T13:28:47.766Z,22.8
2017-07-05T13:29:49.242Z,22.4
2017-07-05T13:30:50.649Z,22.4
2017-07-05T13:31:52.064Z,22.6
2017-07-05T13:32:53.564Z,22.2
2017-07-05T13:33:54.971Z,23.3
2017-07-05T13:34:56.377Z,23.8
2017-07-05T13:35:57.885Z,25.8
2017-07-05T13:36:59.330Z,25.7
2017-07-05T13:38:00.763Z,26.3
2017-07-05T13:39:02.188Z,26.8
2017-07-05T13:40:03.596Z,25.7
2017-07-05T13:41:05.088Z,26.3
2017-07-05T13:42:06.493Z,26.7
2017-07-05T13:43:07.899Z,25.9
2017-07-05T13:44:09.407Z,26.1
2017-07-05T13:45:10.812Z,25.9
2017-07-05T13:46:12.235Z,27.8